createdAt,value
2018-07-16T00:01:00.696Z,31.77
2018-07-16T00:02:37.879Z,31.79
2018-07-16T00:04:17.310Z,31.98
2018-07-16T00:05:53.859Z,31.41
2018-07-16T00:07:30.329Z,32.12
2018-07-16T00:09:06.843Z,31.54
2018-07-16T00:10:44.187Z,31.99
2018-07-16T00:12:20.599Z,32.01
2018-07-16T00:13:57.682Z,31.98
2018-07-16T00:15:34.857Z,31.54
2018-07-16T00:17:11.275Z,31.82
2018-07-16T00:18:48.953Z,32.11
2018-07-16T00:20:26.152Z,31.61
2018-07-16T00:22:02.492Z,32.16
2018-07-16T00:23:39.703Z,31.81
2018-07-16T00:25:16.512Z,31.95
2018-07-16T00:26:53.794Z,31.76
2018-07-16T00:28:30.562Z,32.29
2018-07-16T00:30:08.214Z,32.28
2018-07-16T00:31:44.810Z,32.01
2018-07-16T00:33:21.289Z,31.88
2018-07-16T00:34:57.850Z,31.70
2018-07-16T00:36:34.471Z,31.97
2018-07-16T00:38:11.316Z,31.79
2018-07-16T00:39:48.129Z,32.37
2018-07-16T00:41:25.198Z,32.41
2018-07-16T00:43:03.967Z,31.99
2018-07-16T00:44:41.229Z,32.36
2018-07-16T00:46:18.688Z,32.59
2018-07-16T00:47:55.543Z,32.26
2018-07-16T00:49:32.213Z,31.95
2018-07-16T00:51:09.129Z,32.14
2018-07-16T00:52:45.418Z,32.53
2018-07-16T00:54:21.796Z,32.33
2018-07-16T00:55:58.869Z,32.65
2018-07-16T00:57:35.536Z,32.82
2018-07-16T00:59:11.967Z,32.50
2018-07-16T01:00:48.652Z,32.72
2018-07-16T01:02:24.957Z,32.12
2018-07-16T01:04:01.311Z,32.77
2018-07-16T01:05:37.594Z,32.25
2018-07-16T01:07:14.293Z,32.89
2018-07-16T01:08:50.587Z,32.63
2018-07-16T01:10:27.019Z,32.62
2018-07-16T01:12:03.367Z,32.81
2018-07-16T01:13:40.231Z,32.39
2018-07-16T01:15:16.868Z,32.82
2018-07-16T01:16:53.188Z,32.84
2018-07-16T01:18:31.347Z,32.34
2018-07-16T01:20:17.936Z,32.74
2018-07-16T01:21:54.691Z,32.84
2018-07-16T01:23:31.160Z,32.73
2018-07-16T01:25:07.706Z,32.96
2018-07-16T01:26:44.799Z,32.89
2018-07-16T01:28:21.175Z,32.43
2018-07-16T01:29:59.720Z,33.06
2018-07-16T01:31:36.355Z,33.08
2018-07-16T01:33:12.775Z,33.05
2018-07-16T01:34:49.059Z,32.58
2018-07-16T01:36:25.423Z,32.61
2018-07-16T01:38:02.175Z,33.23
2018-07-16T01:39:38.542Z,33.29
2018-07-16T01:41:14.856Z,33.14
2018-07-16T01:42:51.320Z,32.63
2018-07-16T01:44:27.575Z,32.74
2018-07-16T01:46:04.432Z,33.25
2018-07-16T01:47:40.818Z,32.64
2018-07-16T01:49:17.126Z,32.61
2018-07-16T01:50:54.012Z,32.70
2018-07-16T01:52:30.256Z,33.29
2018-07-16T01:54:06.764Z,32.89
2018-07-16T01:55:43.204Z,33.23
2018-07-16T01:57:20.904Z,32.74
2018-07-16T01:58:58.713Z,32.61
2018-07-16T02:00:42.835Z,33.41
2018-07-16T02:02:20.446Z,32.85
2018-07-16T02:03:57.490Z,33.26
2018-07-16T02:05:33.824Z,33.18
2018-07-16T02:07:11.817Z,33.40
2018-07-16T02:08:49.197Z,32.90
2018-07-16T02:10:26.236Z,32.90
2018-07-16T02:12:02.582Z,33.49
2018-07-16T02:13:42.540Z,33.47
2018-07-16T02:15:19.367Z,33.30
2018-07-16T02:16:57.631Z,32.98
2018-07-16T02:18:37.233Z,33.56
2018-07-16T02:20:33.099Z,33.76
2018-07-16T02:22:10.094Z,33.56
2018-07-16T02:23:46.333Z,33.40
2018-07-16T02:25:24.601Z,33.64
2018-07-16T02:27:01.466Z,33.44
2018-07-16T02:28:38.077Z,33.31
2018-07-16T02:30:22.209Z,33.72
2018-07-16T02:32:01.889Z,33.60
2018-07-16T02:33:54.132Z,33.62
2018-07-16T02:35:33.256Z,33.73
2018-07-16T02:37:11.134Z,33.62
2018-07-16T02:38:47.633Z,33.14
2018-07-16T02:40:25.016Z,33.80
2018-07-16T02:42:07.254Z,33.67
2018-07-16T02:43:49.385Z,33.04
2018-07-16T02:45:30.835Z,33.43
2018-07-16T02:47:14.659Z,33.23
2018-07-16T02:48:53.783Z,33.33
2018-07-16T02:50:30.411Z,33.88
2018-07-16T02:52:10.188Z,33.69
2018-07-16T02:54:06.835Z,33.84
2018-07-16T02:56:05.253Z,33.26
2018-07-16T02:57:50.952Z,33.62
2018-07-16T03:00:39.307Z,33.43
2018-07-16T03:02:30.215Z,33.80
2018-07-16T03:04:11.461Z,33.90
2018-07-16T03:05:48.973Z,33.23
2018-07-16T03:07:25.932Z,33.34
2018-07-16T03:09:03.203Z,33.35
2018-07-16T03:10:40.178Z,33.50
2018-07-16T03:12:16.640Z,33.71
2018-07-16T03:13:55.306Z,33.43
2018-07-16T03:15:37.771Z,33.39
2018-07-16T03:17:23.954Z,33.97
2018-07-16T03:19:00.234Z,33.46
2018-07-16T03:20:40.274Z,34.11
2018-07-16T03:22:18.507Z,34.14
2018-07-16T03:24:01.886Z,34.24
2018-07-16T03:29:06.963Z,33.61
2018-07-16T03:30:43.811Z,34.30
2018-07-16T03:32:20.221Z,34.31
2018-07-16T03:33:57.089Z,33.72
2018-07-16T03:35:33.985Z,33.83
2018-07-16T03:37:10.301Z,33.76
2018-07-16T03:38:46.680Z,33.82
2018-07-16T03:40:23.192Z,34.14
2018-07-16T03:42:08.598Z,33.74
2018-07-16T03:43:45.854Z,33.88
2018-07-16T03:45:22.619Z,33.87
2018-07-16T03:46:58.952Z,34.48
2018-07-16T03:48:35.382Z,34.46
2018-07-16T03:50:12.191Z,33.93
2018-07-16T03:51:54.941Z,34.43
2018-07-16T03:53:32.027Z,34.61
2018-07-16T03:55:10.201Z,34.56
2018-07-16T03:56:46.555Z,34.65
2018-07-16T03:58:25.012Z,34.73
2018-07-16T04:00:05.792Z,34.30
2018-07-16T04:01:46.818Z,34.45
2018-07-16T04:03:23.105Z,34.10
2018-07-16T04:04:59.364Z,34.81
2018-07-16T04:06:36.499Z,34.27
2018-07-16T04:08:12.708Z,34.65
2018-07-16T04:09:48.998Z,34.29
2018-07-16T04:11:39.727Z,34.23
2018-07-16T04:13:28.213Z,34.51
2018-07-16T04:17:20.527Z,34.44
2018-07-16T04:18:57.304Z,35.15
2018-07-16T04:20:40.162Z,35.10
2018-07-16T04:22:25.405Z,35.08
2018-07-16T04:24:05.598Z,34.50
2018-07-16T04:25:44.261Z,34.53
2018-07-16T04:27:22.268Z,34.89
2018-07-16T04:29:24.129Z,34.46
2018-07-16T04:31:04.386Z,35.34
2018-07-16T04:32:44.892Z,34.67
2018-07-16T04:34:21.897Z,35.33
2018-07-16T04:36:12.590Z,34.81
2018-07-16T04:38:08.660Z,34.81
2018-07-16T04:39:46.023Z,34.88
2018-07-16T04:41:23.037Z,35.27
2018-07-16T04:43:01.574Z,34.97
2018-07-16T04:44:37.851Z,35.28
2018-07-16T04:46:16.302Z,35.30
2018-07-16T04:47:52.988Z,35.76
2018-07-16T04:49:29.749Z,35.76
2018-07-16T04:51:06.231Z,35.42
2018-07-16T04:52:43.094Z,35.67
2018-07-16T04:54:20.457Z,35.18
2018-07-16T04:55:56.726Z,35.24
2018-07-16T04:57:33.000Z,35.57
2018-07-16T04:59:09.671Z,35.50
2018-07-16T05:00:46.191Z,35.58
2018-07-16T05:02:22.462Z,35.46
2018-07-16T05:03:58.841Z,35.99
2018-07-16T05:05:35.529Z,35.60
2018-07-16T05:07:11.800Z,35.91
2018-07-16T05:08:49.718Z,35.75
2018-07-16T05:10:26.047Z,35.75
2018-07-16T05:12:02.712Z,35.40
2018-07-16T05:13:39.072Z,35.47
2018-07-16T05:15:17.713Z,35.90
2018-07-16T05:16:54.748Z,36.27
2018-07-16T05:18:31.139Z,36.32
2018-07-16T05:20:07.305Z,36.29
2018-07-16T05:21:43.674Z,36.05
2018-07-16T05:23:19.985Z,35.77
2018-07-16T05:24:56.614Z,36.14
2018-07-16T05:26:32.987Z,36.62
2018-07-16T05:28:09.227Z,36.16
2018-07-16T05:29:45.626Z,35.83
2018-07-16T05:31:23.196Z,36.19
2018-07-16T05:33:02.335Z,36.15
2018-07-16T05:34:38.669Z,36.16
2018-07-16T05:36:14.938Z,35.87
2018-07-16T05:37:51.630Z,36.30
2018-07-16T05:39:27.854Z,36.29
2018-07-16T05:41:05.420Z,36.26
2018-07-16T05:42:41.774Z,36.54
2018-07-16T05:44:18.337Z,36.14
2018-07-16T05:45:55.595Z,36.00
2018-07-16T05:47:31.863Z,36.37
2018-07-16T05:49:08.050Z,36.65
2018-07-16T05:50:44.333Z,36.17
2018-07-16T05:52:23.625Z,35.95
2018-07-16T05:53:59.866Z,36.46
2018-07-16T05:55:36.674Z,36.31
2018-07-16T05:57:13.614Z,36.41
2018-07-16T05:58:50.045Z,36.60
2018-07-16T06:00:27.979Z,36.46
2018-07-16T06:02:12.278Z,35.89
2018-07-16T06:03:48.895Z,35.82
2018-07-16T06:05:25.214Z,36.26
2018-07-16T06:07:01.501Z,35.75
2018-07-16T06:08:39.672Z,36.25
2018-07-16T06:10:16.399Z,36.29
2018-07-16T06:11:52.693Z,36.63
2018-07-16T06:13:29.028Z,35.90
2018-07-16T06:15:09.439Z,36.16
2018-07-16T06:16:48.738Z,36.29
2018-07-16T06:18:25.013Z,35.92
2018-07-16T06:20:04.567Z,35.88
2018-07-16T06:21:40.840Z,36.14
2018-07-16T06:23:17.146Z,36.49
2018-07-16T06:24:58.692Z,36.46
2018-07-16T06:26:35.484Z,36.30
2018-07-16T06:28:12.120Z,35.65
2018-07-16T06:29:49.475Z,35.74
2018-07-16T06:31:26.054Z,36.26
2018-07-16T06:33:02.368Z,35.78
2018-07-16T06:34:39.069Z,35.45
2018-07-16T06:36:15.419Z,35.83
2018-07-16T06:37:51.782Z,36.28
2018-07-16T06:39:28.178Z,35.55
2018-07-16T06:41:05.264Z,35.68
2018-07-16T06:42:42.422Z,35.41
2018-07-16T06:44:18.710Z,36.16
2018-07-16T06:45:56.142Z,35.39
2018-07-16T06:47:32.224Z,36.07
2018-07-16T06:49:12.735Z,36.17
2018-07-16T06:50:50.520Z,35.48
2018-07-16T06:52:27.307Z,35.93
2018-07-16T06:54:03.971Z,35.93
2018-07-16T06:55:41.647Z,35.76
2018-07-16T06:57:19.070Z,35.27
2018-07-16T06:58:56.854Z,35.16
2018-07-16T07:00:34.041Z,35.70
2018-07-16T07:02:10.465Z,35.63
2018-07-16T07:03:46.715Z,35.84
2018-07-16T07:05:26.588Z,35.44
2018-07-16T07:07:03.546Z,35.64
2018-07-16T07:08:39.843Z,35.05
2018-07-16T07:10:17.253Z,35.53
2018-07-16T07:11:54.055Z,35.33
2018-07-16T07:13:30.970Z,35.55
2018-07-16T07:15:09.354Z,35.18
2018-07-16T07:16:47.949Z,35.68
2018-07-16T07:18:26.048Z,35.57
2018-07-16T07:20:03.767Z,35.44
2018-07-16T07:21:40.082Z,35.92
2018-07-16T07:23:16.870Z,35.53
2018-07-16T07:24:56.213Z,35.76
2018-07-16T07:26:33.338Z,35.04
2018-07-16T07:28:13.763Z,34.98
2018-07-16T07:29:50.045Z,35.48
2018-07-16T07:31:28.698Z,35.60
2018-07-16T07:33:07.517Z,35.59
2018-07-16T07:34:48.465Z,34.98
2018-07-16T07:36:26.546Z,34.88
2018-07-16T07:38:03.940Z,35.34
2018-07-16T07:39:40.300Z,35.36
2018-07-16T07:41:17.367Z,35.19
2018-07-16T07:42:54.829Z,34.75
2018-07-16T07:44:35.182Z,35.24
2018-07-16T07:46:15.350Z,34.96
2018-07-16T07:47:56.202Z,34.95
2018-07-16T07:49:32.934Z,35.24
2018-07-16T07:51:09.289Z,35.45
2018-07-16T07:52:46.263Z,35.41
2018-07-16T07:54:23.272Z,35.27
2018-07-16T07:55:59.620Z,35.24
2018-07-16T07:57:36.025Z,34.56
2018-07-16T07:59:12.385Z,34.96
2018-07-16T08:00:53.517Z,35.15
2018-07-16T08:02:33.756Z,35.15
2018-07-16T08:04:11.854Z,34.81
2018-07-16T08:06:08.735Z,34.88
2018-07-16T08:07:46.716Z,34.68
2018-07-16T08:09:31.021Z,34.86
2018-07-16T08:11:08.587Z,34.47
2018-07-16T08:12:44.937Z,34.84
2018-07-16T08:14:22.048Z,35.16
2018-07-16T08:15:58.618Z,34.60
2018-07-16T08:17:34.882Z,34.76
2018-07-16T08:19:16.232Z,35.35
2018-07-16T08:20:59.710Z,34.92
2018-07-16T08:22:56.416Z,34.92
2018-07-16T08:24:33.382Z,34.92
2018-07-16T08:26:12.605Z,34.38
2018-07-16T08:27:50.377Z,34.32
2018-07-16T08:29:28.547Z,34.44
2018-07-16T08:31:07.768Z,34.94
2018-07-16T08:32:45.348Z,34.25
2018-07-16T08:34:23.209Z,34.41
2018-07-16T08:35:59.624Z,34.99
2018-07-16T08:37:36.350Z,34.64
2018-07-16T08:39:13.448Z,35.00
2018-07-16T08:40:49.839Z,34.58
2018-07-16T08:42:26.763Z,35.03
2018-07-16T08:44:04.990Z,34.53
2018-07-16T08:45:41.552Z,34.18
2018-07-16T08:47:18.250Z,34.19
2018-07-16T08:48:56.469Z,34.98
2018-07-16T08:50:47.165Z,34.47
2018-07-16T08:52:23.569Z,34.02
2018-07-16T08:54:00.335Z,34.89
2018-07-16T08:55:41.280Z,33.96
2018-07-16T08:57:20.476Z,34.53
2018-07-16T08:58:57.084Z,34.81
2018-07-16T09:00:35.847Z,34.82
2018-07-16T09:02:12.528Z,34.54
2018-07-16T09:03:50.675Z,33.89
2018-07-16T09:05:28.029Z,34.04
2018-07-16T09:07:05.293Z,34.11
2018-07-16T09:08:44.662Z,34.32
2018-07-16T09:10:21.444Z,34.70
2018-07-16T09:11:59.747Z,34.47
2018-07-16T09:13:36.666Z,34.34
2018-07-16T09:15:16.050Z,34.42
2018-07-16T09:16:55.622Z,34.50
2018-07-16T09:18:33.430Z,33.76
2018-07-16T09:20:13.337Z,34.21
2018-07-16T09:21:58.655Z,34.02
2018-07-16T09:23:36.677Z,34.20
2018-07-16T09:25:14.915Z,34.50
2018-07-16T09:26:55.562Z,33.94
2018-07-16T09:28:32.377Z,34.54
2018-07-16T09:30:09.718Z,33.77
2018-07-16T09:31:46.559Z,34.38
2018-07-16T09:33:50.794Z,34.44
2018-07-16T09:35:33.346Z,33.64
2018-07-16T09:37:10.376Z,34.30
2018-07-16T09:38:52.854Z,33.33
2018-07-16T09:40:42.846Z,33.40
2018-07-16T09:42:24.146Z,33.87
2018-07-16T09:44:01.196Z,34.05
2018-07-16T09:45:39.685Z,33.32
2018-07-16T09:47:18.996Z,34.13
2018-07-16T09:48:55.521Z,33.47
2018-07-16T09:50:33.568Z,33.81
2018-07-16T09:52:14.421Z,33.76
2018-07-16T09:53:54.513Z,33.95
2018-07-16T09:55:33.451Z,33.16
2018-07-16T09:57:10.599Z,33.88
2018-07-16T09:58:48.410Z,32.99
2018-07-16T10:00:30.926Z,33.58
2018-07-16T10:02:22.358Z,33.23
2018-07-16T10:03:58.662Z,33.90
2018-07-16T10:05:38.320Z,33.62
2018-07-16T10:07:20.329Z,33.17
2018-07-16T10:08:57.427Z,33.31
2018-07-16T10:10:38.619Z,33.33
2018-07-16T10:12:15.747Z,33.42
2018-07-16T10:13:53.851Z,33.31
2018-07-16T10:15:33.836Z,32.92
2018-07-16T10:17:11.600Z,32.79
2018-07-16T10:18:49.044Z,33.13
2018-07-16T10:20:26.574Z,32.62
2018-07-16T10:22:04.194Z,33.09
2018-07-16T10:23:40.658Z,33.51
2018-07-16T10:25:19.543Z,33.15
2018-07-16T10:26:57.610Z,33.04
2018-07-16T10:28:44.437Z,33.18
2018-07-16T10:30:25.561Z,33.13
2018-07-16T10:32:03.862Z,33.04
2018-07-16T10:33:41.048Z,33.07
2018-07-16T10:35:18.671Z,32.99
2018-07-16T10:36:55.364Z,33.00
2018-07-16T10:38:32.497Z,32.51
2018-07-16T10:40:13.715Z,32.69
2018-07-16T10:42:02.155Z,32.92
2018-07-16T10:43:46.156Z,32.99
2018-07-16T10:45:28.023Z,32.74
2018-07-16T10:47:08.217Z,33.09
2018-07-16T10:48:46.377Z,32.61
2018-07-16T10:50:24.410Z,32.63
2018-07-16T10:52:03.514Z,32.66
2018-07-16T10:53:41.170Z,32.81
2018-07-16T10:55:24.586Z,32.23
2018-07-16T10:57:11.643Z,32.58
2018-07-16T10:58:48.381Z,32.28
2018-07-16T11:00:28.531Z,32.18
2018-07-16T11:02:05.627Z,32.82
2018-07-16T11:03:43.265Z,32.86
2018-07-16T11:05:20.692Z,32.36
2018-07-16T11:06:57.237Z,32.29
2018-07-16T11:08:40.200Z,32.38
2018-07-16T11:10:17.363Z,32.68
2018-07-16T11:11:53.812Z,32.79
2018-07-16T11:13:32.195Z,32.39
2018-07-16T11:15:09.979Z,32.76
2018-07-16T11:16:47.800Z,32.68
2018-07-16T11:18:24.426Z,32.17
2018-07-16T11:20:01.946Z,32.27
2018-07-16T11:21:41.298Z,32.68
2018-07-16T11:23:20.436Z,31.69
2018-07-16T11:25:00.358Z,31.62
2018-07-16T11:26:43.155Z,31.85
2018-07-16T11:28:23.593Z,32.14
2018-07-16T11:30:07.785Z,31.70
2018-07-16T11:31:44.906Z,32.14
2018-07-16T11:33:23.576Z,31.58
2018-07-16T11:35:02.254Z,32.08
2018-07-16T11:36:38.651Z,32.51
2018-07-16T11:38:15.284Z,31.70
2018-07-16T11:39:59.429Z,32.46
2018-07-16T11:41:39.062Z,32.45
2018-07-16T11:43:15.505Z,32.27
2018-07-16T11:44:55.367Z,31.70
2018-07-16T11:46:34.811Z,32.03
2018-07-16T11:48:12.469Z,31.36
2018-07-16T11:49:49.736Z,31.61
2018-07-16T11:51:37.191Z,32.13
2018-07-16T11:53:15.152Z,31.70
2018-07-16T11:54:55.915Z,31.12
2018-07-16T11:56:33.469Z,31.68
2018-07-16T11:58:09.862Z,31.95
2018-07-16T11:59:47.656Z,31.76
2018-07-16T12:01:25.443Z,31.67
2018-07-16T12:03:03.350Z,31.80
2018-07-16T12:04:40.691Z,31.74
2018-07-16T12:06:23.770Z,31.96
2018-07-16T12:08:00.077Z,30.94
2018-07-16T12:09:36.535Z,31.89
2018-07-16T12:11:14.628Z,31.57
2018-07-16T12:12:53.056Z,31.10
2018-07-16T12:14:30.242Z,31.12
2018-07-16T12:16:09.495Z,31.30
2018-07-16T12:17:46.552Z,31.73
2018-07-16T12:19:25.644Z,31.28
2018-07-16T12:21:06.457Z,30.81
2018-07-16T12:22:44.493Z,31.52
2018-07-16T12:24:20.894Z,30.72
2018-07-16T12:25:59.668Z,31.38
2018-07-16T12:27:38.440Z,31.29
2018-07-16T12:29:16.540Z,31.55
2018-07-16T12:30:58.300Z,31.30
2018-07-16T12:32:43.435Z,30.70
2018-07-16T12:34:25.261Z,31.12
2018-07-16T12:36:02.655Z,31.33
2018-07-16T12:37:40.868Z,30.82
2018-07-16T12:39:22.362Z,30.91
2018-07-16T12:41:04.696Z,31.19
2018-07-16T12:42:43.463Z,31.06
2018-07-16T12:44:22.925Z,30.82
2018-07-16T12:46:02.452Z,30.42
2018-07-16T12:47:51.884Z,30.72
2018-07-16T12:49:28.406Z,31.22
2018-07-16T12:51:06.777Z,31.26
2018-07-16T12:52:43.479Z,30.95
2018-07-16T12:54:19.688Z,30.80
2018-07-16T12:55:56.735Z,31.14
2018-07-16T12:57:33.464Z,30.43
2018-07-16T12:59:11.791Z,30.84
2018-07-16T13:00:51.737Z,30.46
2018-07-16T13:04:16.107Z,30.41
2018-07-16T13:05:53.897Z,30.42
2018-07-16T13:07:32.768Z,30.28
2018-07-16T13:09:10.028Z,29.94
2018-07-16T13:10:49.424Z,30.38
2018-07-16T13:12:29.719Z,30.58
2018-07-16T13:14:07.611Z,30.74
2018-07-16T13:15:51.241Z,30.67
2018-07-16T13:17:28.506Z,30.74
2018-07-16T13:19:06.390Z,30.05
2018-07-16T13:20:46.469Z,30.01
2018-07-16T13:22:24.801Z,29.77
2018-07-16T13:24:01.802Z,30.62
2018-07-16T13:25:39.405Z,30.52
2018-07-16T13:27:18.573Z,30.57
2018-07-16T13:28:57.204Z,29.99
2018-07-16T13:30:34.521Z,30.29
2018-07-16T13:32:12.819Z,29.98
2018-07-16T13:33:49.181Z,30.35
2018-07-16T13:35:26.549Z,30.09
2018-07-16T13:37:05.535Z,30.06
2018-07-16T13:38:48.529Z,29.87
2018-07-16T13:40:32.738Z,30.08
2018-07-16T13:42:11.354Z,29.94
2018-07-16T13:43:55.051Z,30.24
2018-07-16T13:45:34.758Z,29.54
2018-07-16T13:47:12.037Z,30.10
2018-07-16T13:48:50.388Z,30.18
2018-07-16T13:50:58.510Z,29.66
2018-07-16T13:54:43.267Z,29.79
2018-07-16T13:57:59.136Z,29.84
2018-07-16T13:59:35.675Z,29.67
2018-07-16T14:01:13.887Z,29.87
2018-07-16T14:03:04.007Z,30.16
2018-07-16T14:04:42.218Z,29.27
2018-07-16T14:06:21.103Z,30.05
2018-07-16T14:08:04.548Z,29.40
2018-07-16T14:09:45.676Z,29.41
2018-07-16T14:11:23.827Z,29.86
2018-07-16T14:13:01.434Z,29.42
2018-07-16T14:14:38.442Z,30.11
2018-07-16T14:16:15.676Z,29.70
2018-07-16T14:17:52.943Z,29.93
2018-07-16T14:19:29.351Z,29.85
2018-07-16T14:21:07.354Z,29.65
2018-07-16T14:22:44.666Z,28.89
2018-07-16T14:26:06.788Z,29.20
2018-07-16T14:27:44.016Z,28.88
2018-07-16T14:29:21.230Z,28.81
2018-07-16T14:31:00.201Z,29.50
2018-07-16T14:32:41.340Z,28.92
2018-07-16T14:34:19.467Z,29.19
2018-07-16T14:35:58.686Z,28.97
2018-07-16T14:37:35.233Z,29.16
2018-07-16T14:39:12.119Z,29.36
2018-07-16T14:40:49.123Z,29.43
2018-07-16T14:42:27.238Z,29.15
2018-07-16T14:44:05.727Z,29.12
2018-07-16T14:45:43.202Z,29.49
2018-07-16T14:47:20.062Z,29.14
2018-07-16T14:48:57.191Z,29.35
2018-07-16T14:50:36.957Z,29.30
2018-07-16T14:52:13.735Z,29.17
2018-07-16T14:53:50.175Z,28.61
2018-07-16T14:55:27.290Z,28.56
2018-07-16T14:57:03.970Z,29.46
2018-07-16T14:58:42.544Z,28.78
2018-07-16T15:00:22.252Z,28.75
2018-07-16T15:02:00.170Z,28.38
2018-07-16T15:03:37.535Z,28.95
2018-07-16T15:05:14.177Z,28.69
2018-07-16T15:07:07.547Z,29.28
2018-07-16T15:08:46.423Z,29.14
2018-07-16T15:10:22.904Z,28.94
2018-07-16T15:12:01.402Z,28.49
2018-07-16T15:13:40.288Z,29.10
2018-07-16T15:15:21.836Z,28.39
2018-07-16T15:17:03.064Z,29.07
2018-07-16T15:18:43.264Z,28.65
2018-07-16T15:20:23.282Z,28.30
2018-07-16T15:22:03.540Z,28.37
2018-07-16T15:23:42.245Z,28.57
2018-07-16T15:25:19.677Z,28.58
2018-07-16T15:26:58.502Z,28.46
2018-07-16T15:28:37.349Z,28.86
2018-07-16T15:30:19.311Z,27.88
2018-07-16T15:31:56.627Z,28.36
2018-07-16T15:33:39.801Z,28.27
2018-07-16T15:35:21.535Z,28.74
2018-07-16T15:37:04.230Z,28.61
2018-07-16T15:38:44.346Z,28.06
2018-07-16T15:40:25.260Z,28.35
2018-07-16T15:42:05.131Z,28.19
2018-07-16T15:43:47.465Z,28.14
2018-07-16T15:45:24.081Z,28.10
2018-07-16T15:47:03.947Z,28.25
2018-07-16T15:48:42.007Z,27.73
2018-07-16T15:50:18.752Z,28.53
2018-07-16T15:51:56.507Z,27.48
2018-07-16T15:53:32.881Z,27.81
2018-07-16T15:55:11.049Z,27.76
2018-07-16T15:56:47.376Z,27.40
2018-07-16T15:58:24.411Z,27.79
2018-07-16T16:00:01.270Z,27.46
2018-07-16T16:03:22.644Z,27.31
2018-07-16T16:04:59.821Z,27.59
2018-07-16T16:06:36.250Z,28.01
2018-07-16T16:08:12.683Z,27.31
2018-07-16T16:09:49.877Z,27.65
2018-07-16T16:11:28.486Z,27.95
2018-07-16T16:13:06.580Z,27.65
2018-07-16T16:14:44.055Z,27.37
2018-07-16T16:16:22.663Z,27.24
2018-07-16T16:17:59.510Z,27.34
2018-07-16T16:19:36.084Z,27.92
2018-07-16T16:21:13.167Z,27.50
2018-07-16T16:22:49.627Z,27.10
2018-07-16T16:24:30.980Z,27.30
2018-07-16T16:26:08.714Z,27.57
2018-07-16T16:27:46.775Z,27.08
2018-07-16T16:29:24.338Z,27.45
2018-07-16T16:31:03.248Z,26.98
2018-07-16T16:32:44.794Z,27.48
2018-07-16T16:34:29.935Z,26.97
2018-07-16T16:36:14.556Z,27.74
2018-07-16T16:37:54.552Z,26.93
2018-07-16T16:39:33.545Z,27.44
2018-07-16T16:41:15.377Z,26.85
2018-07-16T16:42:55.237Z,27.23
2018-07-16T16:44:38.202Z,27.52
2018-07-16T16:46:17.859Z,27.13
2018-07-16T16:47:56.079Z,27.60
2018-07-16T16:49:34.161Z,26.59
2018-07-16T16:51:15.510Z,27.03
2018-07-16T16:52:53.769Z,26.92
2018-07-16T16:54:33.909Z,27.10
2018-07-16T16:56:12.545Z,26.68
2018-07-16T16:59:38.294Z,26.98
2018-07-16T17:01:20.461Z,26.70
2018-07-16T17:02:59.448Z,26.59
2018-07-16T17:04:36.836Z,26.40
2018-07-16T17:06:16.844Z,27.00
2018-07-16T17:07:53.881Z,27.34
2018-07-16T17:09:30.389Z,26.76
2018-07-16T17:11:12.397Z,26.96
2018-07-16T17:12:49.444Z,26.27
2018-07-16T17:14:26.696Z,27.31
2018-07-16T17:16:07.713Z,26.43
2018-07-16T17:17:44.801Z,26.51
2018-07-16T17:19:21.226Z,26.81
2018-07-16T17:20:59.335Z,26.75
2018-07-16T17:22:35.585Z,26.81
2018-07-16T17:24:12.835Z,26.71
2018-07-16T17:25:49.300Z,26.94
2018-07-16T17:27:25.692Z,27.14
2018-07-16T17:29:02.952Z,26.94
2018-07-16T17:30:40.484Z,26.50
2018-07-16T17:32:17.981Z,26.72
2018-07-16T17:33:58.981Z,26.20
2018-07-16T17:35:35.413Z,27.01
2018-07-16T17:37:14.577Z,26.10
2018-07-16T17:38:52.611Z,26.29
2018-07-16T17:40:32.299Z,26.62
2018-07-16T17:42:10.418Z,26.76
2018-07-16T17:43:52.011Z,26.62
2018-07-16T17:45:38.307Z,26.54
2018-07-16T17:47:19.177Z,26.37
2018-07-16T17:48:59.588Z,26.04
2018-07-16T17:50:37.584Z,26.77
2018-07-16T17:52:20.955Z,26.96
2018-07-16T17:54:02.443Z,26.03
2018-07-16T17:55:43.242Z,26.79
2018-07-16T17:57:24.488Z,26.67
2018-07-16T17:59:02.015Z,26.08
2018-07-16T18:00:42.693Z,26.33
2018-07-16T18:02:24.149Z,26.85
2018-07-16T18:04:01.815Z,26.53
2018-07-16T18:05:41.713Z,26.23
2018-07-16T18:07:24.092Z,26.66
2018-07-16T18:09:06.019Z,26.31
2018-07-16T18:10:44.685Z,26.38
2018-07-16T18:12:22.543Z,26.55
2018-07-16T18:14:00.554Z,26.63
2018-07-16T18:15:41.579Z,26.21
2018-07-16T18:17:20.120Z,26.18
2018-07-16T18:18:58.499Z,26.04
2018-07-16T18:20:38.582Z,26.45
2018-07-16T18:22:15.581Z,25.72
2018-07-16T18:23:51.825Z,26.57
2018-07-16T18:25:30.501Z,26.55
2018-07-16T18:27:09.721Z,25.82
2018-07-16T18:28:49.960Z,26.22
2018-07-16T18:30:30.430Z,26.01
2018-07-16T18:32:09.474Z,26.12
2018-07-16T18:33:49.601Z,26.01
2018-07-16T18:35:30.617Z,25.87
2018-07-16T18:37:08.918Z,26.21
2018-07-16T18:38:46.457Z,26.39
2018-07-16T18:40:25.217Z,26.13
2018-07-16T18:42:05.660Z,26.00
2018-07-16T18:43:44.574Z,26.10
2018-07-16T18:45:25.533Z,25.44
2018-07-16T18:47:02.842Z,25.96
2018-07-16T18:48:40.057Z,25.68
2018-07-16T18:50:19.556Z,26.42
2018-07-16T18:52:02.456Z,25.72
2018-07-16T18:53:54.535Z,25.77
2018-07-16T18:58:49.612Z,25.58
2018-07-16T19:00:30.270Z,25.64
2018-07-16T19:02:10.533Z,26.01
2018-07-16T19:03:49.370Z,26.05
2018-07-16T19:05:26.710Z,26.00
2018-07-16T19:07:03.618Z,25.63
2018-07-16T19:08:41.469Z,26.16
2018-07-16T19:14:29.271Z,26.21
2018-07-16T19:16:16.552Z,25.90
2018-07-16T19:18:04.476Z,25.26
2018-07-16T19:19:48.287Z,25.38
2018-07-16T19:21:26.392Z,25.55
2018-07-16T19:23:08.105Z,26.14
2018-07-16T19:24:45.882Z,25.73
2018-07-16T19:26:25.653Z,26.11
2018-07-16T19:28:02.049Z,25.46
2018-07-16T19:29:49.055Z,25.36
2018-07-16T19:31:28.054Z,25.21
2018-07-16T19:33:11.183Z,25.67
2018-07-16T19:34:52.674Z,25.76
2018-07-16T19:36:31.588Z,25.73
2018-07-16T19:38:13.959Z,25.24
2018-07-16T19:39:52.751Z,25.70
2018-07-16T19:41:30.262Z,25.55
2018-07-16T19:43:07.403Z,25.54
2018-07-16T19:44:46.426Z,25.69
2018-07-16T19:46:24.152Z,25.98
2018-07-16T19:48:06.522Z,25.96
2018-07-16T19:49:47.839Z,25.28
2018-07-16T19:51:26.573Z,25.25
2018-07-16T19:53:08.385Z,25.60
2018-07-16T19:54:46.099Z,25.96
2018-07-16T19:56:24.600Z,25.31
2018-07-16T19:58:05.334Z,25.78
2018-07-16T19:59:45.504Z,25.63
2018-07-16T20:01:23.443Z,25.91
2018-07-16T20:03:07.619Z,25.56
2018-07-16T20:04:44.429Z,25.44
2018-07-16T20:06:28.175Z,25.67
2018-07-16T20:08:07.559Z,25.11
2018-07-16T20:09:45.509Z,25.75
2018-07-16T20:11:24.222Z,25.86
2018-07-16T20:13:06.564Z,25.04
2018-07-16T20:14:45.550Z,25.26
2018-07-16T20:16:22.308Z,25.17
2018-07-16T20:18:03.127Z,25.80
2018-07-16T20:19:47.724Z,25.85
2018-07-16T20:21:24.103Z,25.24
2018-07-16T20:23:09.646Z,25.89
2018-07-16T20:24:48.055Z,25.55
2018-07-16T20:26:24.981Z,25.14
2018-07-16T20:28:04.955Z,25.88
2018-07-16T20:29:42.753Z,25.64
2018-07-16T20:31:20.952Z,25.84
2018-07-16T20:32:58.152Z,25.78
2018-07-16T20:34:35.175Z,25.23
2018-07-16T20:36:13.006Z,25.35
2018-07-16T20:37:49.994Z,25.25
2018-07-16T20:39:30.334Z,25.68
2018-07-16T20:41:09.299Z,25.00
2018-07-16T20:42:48.642Z,25.09
2018-07-16T20:45:32.776Z,25.35
2018-07-16T20:47:10.200Z,25.77
2018-07-16T20:48:48.560Z,25.83
2018-07-16T20:50:29.240Z,25.34
2018-07-16T20:52:07.975Z,25.67
2018-07-16T20:53:44.924Z,25.75
2018-07-16T20:55:21.855Z,25.09
2018-07-16T20:57:01.622Z,25.96
2018-07-16T20:58:39.566Z,25.76
2018-07-16T21:00:20.949Z,25.41
2018-07-16T21:01:58.894Z,25.74
2018-07-16T21:03:35.536Z,25.43
2018-07-16T21:05:14.151Z,26.02
2018-07-16T21:06:54.378Z,25.72
2018-07-16T21:08:35.972Z,25.35
2018-07-16T21:10:15.276Z,25.94
2018-07-16T21:12:03.117Z,25.72
2018-07-16T21:13:49.413Z,25.88
2018-07-16T21:15:32.717Z,25.74
2018-07-16T21:17:16.638Z,25.50
2018-07-16T21:18:58.378Z,25.73
2018-07-16T21:20:42.477Z,25.75
2018-07-16T21:22:20.727Z,25.49
2018-07-16T21:23:59.780Z,25.33
2018-07-16T21:25:38.663Z,25.91
2018-07-16T21:27:18.806Z,25.29
2018-07-16T21:28:58.341Z,25.31
2018-07-16T21:30:42.206Z,25.36
2018-07-16T21:32:25.524Z,26.16
2018-07-16T21:34:05.234Z,25.38
2018-07-16T21:35:46.326Z,25.38
2018-07-16T21:37:25.026Z,25.37
2018-07-16T21:39:01.870Z,25.71
2018-07-16T21:40:39.346Z,25.53